createdAt,value
2023-05-19T21:38:24.290Z,47.42
2023-05-19T21:40:53.732Z,47.50
2023-05-19T21:43:23.368Z,47.40
2023-05-19T21:45:52.016Z,47.62
2023-05-19T21:48:21.660Z,47.67
2023-05-19T21:50:54.233Z,47.64
2023-05-19T21:53:24.263Z,47.85
2023-05-19T21:55:52.991Z,47.84
2023-05-19T21:58:21.537Z,48.18
2023-05-19T22:00:50.931Z,47.93
2023-05-19T22:03:19.744Z,47.95
2023-05-19T22:05:53.733Z,47.98
2023-05-19T22:08:22.678Z,48.28
2023-05-19T22:10:53.441Z,48.20
2023-05-19T22:13:22.464Z,48.06
2023-05-19T22:15:51.030Z,48.16
2023-05-19T22:18:19.611Z,48.17
2023-05-19T22:20:48.128Z,48.21
2023-05-19T22:23:16.798Z,48.21
2023-05-19T22:25:45.846Z,48.38
2023-05-19T22:28:16.131Z,48.48
2023-05-19T22:30:45.149Z,48.44
2023-05-19T22:33:13.987Z,48.56
2023-05-19T22:35:43.122Z,48.71
2023-05-19T22:38:11.887Z,49.03
2023-05-19T22:40:40.491Z,49.28
2023-05-19T22:43:09.135Z,49.18
2023-05-19T22:45:39.078Z,49.29
2023-05-19T22:48:08.290Z,49.28
2023-05-19T22:50:37.144Z,49.29
2023-05-19T22:53:05.787Z,49.42
2023-05-19T22:55:34.783Z,49.66
2023-05-19T22:58:03.993Z,49.62
2023-05-19T23:00:33.378Z,49.40
2023-05-19T23:03:03.417Z,49.19
2023-05-19T23:05:32.400Z,48.83
2023-05-19T23:08:01.078Z,49.03
2023-05-19T23:10:29.594Z,48.97
2023-05-19T23:12:58.244Z,49.38
2023-05-19T23:15:27.068Z,49.20
2023-05-19T23:17:55.946Z,49.61
2023-05-19T23:20:25.916Z,49.39
2023-05-19T23:22:54.415Z,49.77
2023-05-19T23:25:22.997Z,49.62
2023-05-19T23:27:51.662Z,49.57
2023-05-19T23:30:20.273Z,49.63
2023-05-19T23:32:48.851Z,49.61
2023-05-19T23:35:18.506Z,49.68
2023-05-19T23:37:48.792Z,49.61
2023-05-19T23:40:17.568Z,49.75
2023-05-19T23:42:46.395Z,49.78
2023-05-19T23:45:15.160Z,49.88
2023-05-19T23:47:43.697Z,50.17
2023-05-19T23:50:12.536Z,50.06
2023-05-19T23:52:41.423Z,50.27
2023-05-19T23:55:12.984Z,50.11
2023-05-19T23:57:41.719Z,50.23
